Terminal Aerodrome Forecast
Issued by NWS Bismarck, ND

Home | Current Version | Previous Version | Text Only | Print | Product List | Glossary Off
Versions: 1 2 3 4 5 6 7 8 9 10 11 12 13 14

000
FTUS43 KBIS 231300 AAA
TAFISN
TAF AMD
KISN 231339Z 2314/2412 30026G35KT 3SM -SN SCT022 OVC035
     FM231500 31026G35KT 5SM -SN BLSN OVC015
     FM232200 32020G28KT P6SM OVC015
     FM240300 32010KT P6SM OVC025=

USA.gov is the U.S. government's official web portal to all federal, state and local government web resources and services.